createdAt,value
2022-10-01T00:00:13.674Z,76.71
2022-10-01T00:01:17.877Z,76.98
2022-10-01T00:02:20.074Z,76.69
2022-10-01T00:03:24.350Z,76.75
2022-10-01T00:04:27.866Z,76.87
2022-10-01T00:05:30.079Z,77.04
2022-10-01T00:06:32.235Z,76.95
2022-10-01T00:07:41.410Z,76.73
2022-10-01T00:08:48.182Z,76.71
2022-10-01T00:09:50.529Z,76.57
2022-10-01T00:10:52.953Z,76.62
2022-10-01T00:11:55.111Z,76.82
2022-10-01T00:12:58.971Z,76.98
2022-10-01T00:14:03.791Z,76.96
2022-10-01T00:15:13.369Z,77.20
2022-10-01T00:16:21.927Z,76.99
2022-10-01T00:17:24.357Z,77.20
2022-10-01T00:18:26.548Z,77.34
2022-10-01T00:19:28.732Z,77.22
2022-10-01T00:20:30.918Z,76.99
2022-10-01T00:21:33.574Z,76.85
2022-10-01T00:22:36.346Z,76.86
2022-10-01T00:23:38.890Z,76.98
2022-10-01T00:24:41.094Z,76.93
2022-10-01T00:25:43.703Z,76.83
2022-10-01T00:26:46.031Z,76.58
2022-10-01T00:27:48.215Z,76.77
2022-10-01T00:28:57.537Z,76.79
2022-10-01T00:29:59.711Z,76.90
2022-10-01T00:31:02.090Z,76.79
2022-10-01T00:32:04.451Z,76.99
2022-10-01T00:33:06.719Z,77.14
2022-10-01T00:34:12.590Z,77.19
2022-10-01T00:35:14.948Z,77.17
2022-10-01T00:36:17.133Z,77.18
2022-10-01T00:37:20.786Z,77.42
2022-10-01T00:38:23.125Z,77.35
2022-10-01T00:39:25.281Z,77.14
2022-10-01T00:40:27.580Z,77.28
2022-10-01T00:41:32.785Z,77.29
2022-10-01T00:42:35.151Z,77.19
2022-10-01T00:43:42.706Z,77.21
2022-10-01T00:44:45.439Z,77.59
2022-10-01T00:45:48.644Z,77.44
2022-10-01T00:46:52.456Z,77.40
2022-10-01T00:47:58.172Z,77.74
2022-10-01T00:49:11.082Z,77.40
2022-10-01T00:50:30.546Z,77.21
2022-10-01T00:51:39.754Z,77.28
2022-10-01T00:52:45.569Z,77.41
2022-10-01T00:53:48.451Z,77.38
2022-10-01T00:54:57.630Z,77.53
2022-10-01T00:55:59.948Z,77.47
2022-10-01T00:57:04.774Z,77.43
2022-10-01T00:58:08.924Z,77.51
2022-10-01T00:59:12.850Z,77.52
2022-10-01T01:00:15.184Z,77.42
2022-10-01T01:01:17.397Z,77.61
2022-10-01T01:02:19.901Z,77.45
2022-10-01T01:03:22.613Z,77.43
2022-10-01T01:04:24.751Z,77.08
2022-10-01T01:05:27.022Z,77.21
2022-10-01T01:06:29.625Z,77.20
2022-10-01T01:07:33.830Z,77.30
2022-10-01T01:08:36.155Z,77.29
2022-10-01T01:09:43.495Z,77.46
2022-10-01T01:10:57.666Z,77.71
2022-10-01T01:12:14.695Z,77.67
2022-10-01T01:13:29.200Z,77.60
2022-10-01T01:15:09.464Z,77.66
2022-10-01T01:16:29.150Z,77.63
2022-10-01T01:17:53.145Z,77.46
2022-10-01T01:19:17.397Z,77.81
2022-10-01T01:20:31.838Z,77.64
2022-10-01T01:21:39.652Z,77.70
2022-10-01T01:22:50.774Z,77.73
2022-10-01T01:23:55.581Z,77.57
2022-10-01T01:25:03.207Z,77.36
2022-10-01T01:26:05.466Z,77.29
2022-10-01T01:27:42.659Z,77.39
2022-10-01T01:28:51.626Z,77.25
2022-10-01T01:29:57.354Z,77.36
2022-10-01T01:31:08.263Z,77.49
2022-10-01T01:32:21.707Z,77.85
2022-10-01T01:33:27.658Z,77.62
2022-10-01T01:34:32.629Z,77.63
2022-10-01T01:35:44.784Z,77.53
2022-10-01T01:36:54.469Z,77.44
2022-10-01T01:38:02.125Z,77.40
2022-10-01T01:39:08.374Z,77.39
2022-10-01T01:40:14.623Z,77.29
2022-10-01T01:41:20.142Z,77.70
2022-10-01T01:42:37.206Z,77.71
2022-10-01T01:43:44.814Z,77.89
2022-10-01T01:44:49.179Z,78.04
2022-10-01T01:45:55.983Z,77.99
2022-10-01T01:46:59.630Z,78.15
2022-10-01T01:48:03.743Z,78.29
2022-10-01T01:49:06.942Z,78.47
2022-10-01T01:50:10.876Z,78.35
2022-10-01T01:51:39.761Z,78.70
2022-10-01T01:52:42.149Z,78.95
2022-10-01T01:53:44.550Z,78.94
2022-10-01T01:54:49.734Z,79.01
2022-10-01T01:55:53.839Z,79.39
2022-10-01T01:56:58.321Z,79.26
2022-10-01T01:58:01.156Z,79.26
2022-10-01T01:59:03.969Z,79.44
2022-10-01T02:00:06.586Z,79.61
2022-10-01T02:01:41.793Z,79.49
2022-10-01T02:02:50.338Z,79.48
2022-10-01T02:03:52.698Z,79.50
2022-10-01T02:04:59.414Z,79.61
2022-10-01T02:06:17.960Z,79.64
2022-10-01T02:07:38.610Z,79.46
2022-10-01T02:08:52.121Z,79.66
2022-10-01T02:10:14.637Z,79.99
2022-10-01T02:11:21.700Z,79.80
2022-10-01T02:13:01.902Z,79.67
2022-10-01T02:14:25.490Z,79.93
2022-10-01T02:15:55.775Z,79.96
2022-10-01T02:17:02.051Z,80.40
2022-10-01T02:18:23.825Z,80.26
2022-10-01T02:19:41.095Z,80.13
2022-10-01T02:20:51.700Z,80.09
2022-10-01T02:21:59.434Z,80.12
2022-10-01T02:23:13.085Z,80.17
2022-10-01T02:24:49.026Z,80.56
2022-10-01T02:25:58.555Z,80.38
2022-10-01T02:27:05.673Z,80.44
2022-10-01T02:28:12.008Z,80.34
2022-10-01T02:29:17.752Z,80.44
2022-10-01T02:30:19.943Z,80.49
2022-10-01T02:31:23.354Z,80.30
2022-10-01T02:32:27.521Z,80.04
2022-10-01T02:33:32.604Z,79.98
2022-10-01T02:34:34.924Z,80.21
2022-10-01T02:35:37.868Z,80.12
2022-10-01T02:36:45.203Z,80.39
2022-10-01T02:37:52.505Z,80.05
2022-10-01T02:38:56.922Z,79.99
2022-10-01T02:40:01.639Z,80.02
2022-10-01T02:41:08.332Z,80.05
2022-10-01T02:42:14.034Z,80.03
2022-10-01T02:43:21.231Z,79.98
2022-10-01T02:44:32.044Z,79.62
2022-10-01T02:45:37.995Z,80.02
2022-10-01T02:46:49.182Z,80.03
2022-10-01T02:47:58.782Z,80.22
2022-10-01T02:49:02.884Z,80.16
2022-10-01T02:50:08.026Z,80.25
2022-10-01T02:51:34.172Z,80.29
2022-10-01T02:53:08.878Z,80.35
2022-10-01T02:54:22.612Z,80.24
2022-10-01T02:55:29.994Z,80.23
2022-10-01T02:56:54.310Z,80.14
2022-10-01T02:57:58.741Z,80.22
2022-10-01T02:59:01.033Z,80.06
2022-10-01T03:00:11.467Z,80.49
2022-10-01T03:01:13.651Z,80.41
2022-10-01T03:02:15.986Z,80.17
2022-10-01T03:03:18.236Z,80.03
2022-10-01T03:04:20.519Z,79.80
2022-10-01T03:05:23.019Z,79.76
2022-10-01T03:06:25.325Z,79.77
2022-10-01T03:07:29.965Z,79.94
2022-10-01T03:08:32.222Z,79.91
2022-10-01T03:09:36.665Z,80.04
2022-10-01T03:10:41.450Z,79.93
2022-10-01T03:11:45.868Z,79.66
2022-10-01T03:12:48.962Z,79.81
2022-10-01T03:13:51.310Z,79.70
2022-10-01T03:14:53.754Z,79.67
2022-10-01T03:15:56.197Z,79.60
2022-10-01T03:16:58.393Z,79.81
2022-10-01T03:18:00.728Z,79.93
2022-10-01T03:19:02.927Z,80.00
2022-10-01T03:20:05.983Z,80.08
2022-10-01T03:21:08.390Z,79.94
2022-10-01T03:22:14.103Z,79.78
2022-10-01T03:23:16.409Z,80.05
2022-10-01T03:24:18.582Z,79.87
2022-10-01T03:25:20.731Z,79.99
2022-10-01T03:26:26.943Z,79.70
2022-10-01T03:27:29.187Z,79.76
2022-10-01T03:28:31.541Z,80.03
2022-10-01T03:29:33.848Z,80.02
2022-10-01T03:30:35.982Z,80.10
2022-10-01T03:31:38.876Z,80.36
2022-10-01T03:32:41.153Z,80.45
2022-10-01T03:33:43.424Z,80.58
2022-10-01T03:34:46.295Z,80.29
2022-10-01T03:35:48.441Z,80.46
2022-10-01T03:36:52.389Z,80.46
2022-10-01T03:37:54.573Z,80.54
2022-10-01T03:38:56.739Z,80.22
2022-10-01T03:39:59.078Z,80.00
2022-10-01T03:41:01.528Z,79.88
2022-10-01T03:42:05.852Z,79.79
2022-10-01T03:43:08.021Z,79.67
2022-10-01T03:44:10.502Z,79.87
2022-10-01T03:45:12.937Z,79.89
2022-10-01T03:46:15.400Z,80.01
2022-10-01T03:47:17.616Z,80.04
2022-10-01T03:48:20.215Z,80.06
2022-10-01T03:49:22.446Z,80.48
2022-10-01T03:50:24.571Z,80.49
2022-10-01T03:51:31.500Z,80.54
2022-10-01T03:52:33.818Z,80.62
2022-10-01T03:53:36.092Z,80.63
2022-10-01T03:54:39.389Z,80.65
2022-10-01T03:55:41.689Z,80.57
2022-10-01T03:56:44.105Z,80.93
2022-10-01T03:57:46.467Z,81.07
2022-10-01T03:58:48.781Z,81.09
2022-10-01T03:59:50.949Z,81.06
2022-10-01T04:00:56.537Z,81.35
2022-10-01T04:01:58.926Z,81.59
2022-10-01T04:03:01.252Z,81.49
2022-10-01T04:04:04.095Z,81.44
2022-10-01T04:05:06.437Z,81.32
2022-10-01T04:06:08.744Z,81.28
2022-10-01T04:07:11.249Z,81.43
2022-10-01T04:08:13.997Z,81.48
2022-10-01T04:09:16.352Z,81.58
2022-10-01T04:10:19.168Z,81.56
2022-10-01T04:11:21.738Z,81.42
2022-10-01T04:12:26.757Z,81.35
2022-10-01T04:13:30.004Z,81.71
2022-10-01T04:14:32.326Z,81.70
2022-10-01T04:15:34.851Z,81.59
2022-10-01T04:16:37.273Z,81.86
2022-10-01T04:17:42.681Z,81.96
2022-10-01T04:18:47.946Z,82.03
2022-10-01T04:19:50.092Z,82.11
2022-10-01T04:20:52.440Z,82.18
2022-10-01T04:21:54.729Z,82.39
2022-10-01T04:22:56.920Z,82.36
2022-10-01T04:23:59.677Z,82.11
2022-10-01T04:25:02.684Z,82.14
2022-10-01T04:26:05.062Z,82.21
2022-10-01T04:27:07.211Z,82.39
2022-10-01T04:28:12.215Z,82.50
2022-10-01T04:29:14.814Z,82.65
2022-10-01T04:30:17.003Z,82.72
2022-10-01T04:31:25.462Z,82.65
2022-10-01T04:32:28.093Z,82.79
2022-10-01T04:33:30.210Z,82.92
2022-10-01T04:34:51.025Z,82.94
2022-10-01T04:35:53.257Z,83.07
2022-10-01T04:36:56.356Z,83.11
2022-10-01T04:38:03.587Z,83.13
2022-10-01T04:39:09.715Z,82.97
2022-10-01T04:40:13.058Z,82.71
2022-10-01T04:41:21.827Z,82.71
2022-10-01T04:42:24.016Z,82.87
2022-10-01T04:43:26.245Z,82.71
2022-10-01T04:44:31.203Z,82.64
2022-10-01T04:45:33.936Z,82.72
2022-10-01T04:46:36.276Z,82.93
2022-10-01T04:47:38.819Z,82.67
2022-10-01T04:48:41.249Z,82.74
2022-10-01T04:49:43.381Z,82.84
2022-10-01T04:50:45.654Z,82.75
2022-10-01T04:51:47.842Z,82.50
2022-10-01T04:52:50.923Z,82.62
2022-10-01T04:53:53.146Z,82.51
2022-10-01T04:54:55.276Z,82.46
2022-10-01T04:55:57.466Z,82.54
2022-10-01T04:56:59.802Z,82.45
2022-10-01T04:58:02.992Z,82.19
2022-10-01T04:59:05.134Z,82.20
2022-10-01T05:00:10.108Z,82.53
2022-10-01T05:01:12.263Z,82.67
2022-10-01T05:02:14.829Z,82.68
2022-10-01T05:03:17.864Z,82.69
2022-10-01T05:04:20.022Z,82.55
2022-10-01T05:05:24.126Z,82.42
2022-10-01T05:06:26.235Z,82.59
2022-10-01T05:07:28.596Z,82.43
2022-10-01T05:08:31.298Z,82.30
2022-10-01T05:09:33.552Z,82.22
2022-10-01T05:10:36.555Z,82.07
2022-10-01T05:11:39.183Z,81.97
2022-10-01T05:12:42.229Z,82.01
2022-10-01T05:13:44.741Z,81.94
2022-10-01T05:14:47.302Z,81.78
2022-10-01T05:15:52.250Z,81.70
2022-10-01T05:16:54.677Z,81.89
2022-10-01T05:17:57.241Z,81.87
2022-10-01T05:18:59.377Z,81.90
2022-10-01T05:20:04.641Z,81.89
2022-10-01T05:21:07.965Z,81.72
2022-10-01T05:22:10.147Z,81.57
2022-10-01T05:23:12.443Z,81.44
2022-10-01T05:24:16.202Z,81.37
2022-10-01T05:25:19.406Z,81.21
2022-10-01T05:26:21.840Z,81.33
2022-10-01T05:27:24.026Z,81.31
2022-10-01T05:28:28.149Z,81.40
2022-10-01T05:29:30.707Z,81.06
2022-10-01T05:30:34.187Z,80.95
2022-10-01T05:31:36.770Z,80.97
2022-10-01T05:32:39.885Z,80.67
2022-10-01T05:33:42.652Z,80.46
2022-10-01T05:34:46.362Z,80.56
2022-10-01T05:35:52.041Z,80.51
2022-10-01T05:36:55.407Z,80.37
2022-10-01T05:37:59.838Z,80.52
2022-10-01T05:39:02.327Z,80.59
2022-10-01T05:40:04.996Z,80.83
2022-10-01T05:41:07.170Z,80.91
2022-10-01T05:42:09.436Z,80.77
2022-10-01T05:43:12.247Z,80.70
2022-10-01T05:44:14.525Z,80.69
2022-10-01T05:45:17.149Z,80.56
2022-10-01T05:46:19.815Z,80.49
2022-10-01T05:47:22.534Z,80.35
2022-10-01T05:48:24.837Z,80.18
2022-10-01T05:49:27.202Z,79.96
2022-10-01T05:50:33.731Z,79.73
2022-10-01T05:51:36.460Z,79.45
2022-10-01T05:52:39.008Z,79.65
2022-10-01T05:53:41.391Z,80.02
2022-10-01T05:54:43.855Z,79.95
2022-10-01T05:55:46.564Z,79.99
2022-10-01T05:56:50.391Z,79.80
2022-10-01T05:58:01.280Z,79.72
2022-10-01T05:59:04.889Z,79.46
2022-10-01T06:00:07.542Z,79.49
2022-10-01T06:01:14.252Z,79.44
2022-10-01T06:02:16.648Z,79.21
2022-10-01T06:03:19.064Z,78.57
2022-10-01T06:04:21.496Z,78.68
2022-10-01T06:05:24.767Z,78.52
2022-10-01T06:06:27.843Z,78.55
2022-10-01T06:07:33.012Z,78.46
2022-10-01T06:08:37.185Z,78.51
2022-10-01T06:09:39.347Z,78.39
2022-10-01T06:10:41.704Z,78.40
2022-10-01T06:11:44.229Z,78.24
2022-10-01T06:12:46.864Z,77.83
2022-10-01T06:13:49.229Z,77.95
2022-10-01T06:14:51.434Z,77.74
2022-10-01T06:15:54.007Z,77.73
2022-10-01T06:16:56.202Z,77.45
2022-10-01T06:18:02.535Z,77.46
2022-10-01T06:19:04.817Z,77.45
2022-10-01T06:20:07.265Z,77.24
2022-10-01T06:21:10.207Z,77.33
2022-10-01T06:22:12.517Z,77.09
2022-10-01T06:23:14.996Z,77.29
2022-10-01T06:24:17.337Z,77.26
2022-10-01T06:25:19.633Z,76.86
2022-10-01T06:26:22.020Z,76.58
2022-10-01T06:27:24.155Z,76.64
2022-10-01T06:28:26.609Z,76.44
2022-10-01T06:29:28.925Z,76.64
2022-10-01T06:30:32.743Z,76.27
2022-10-01T06:31:35.192Z,76.35
2022-10-01T06:32:37.577Z,76.57
2022-10-01T06:33:39.786Z,76.33
2022-10-01T06:34:42.110Z,76.07
2022-10-01T06:35:47.285Z,76.15
2022-10-01T06:36:49.455Z,76.01
2022-10-01T06:37:51.591Z,76.03
2022-10-01T06:38:53.764Z,76.00
2022-10-01T06:39:55.901Z,76.01
2022-10-01T06:40:59.849Z,76.01
2022-10-01T06:42:02.172Z,76.41
2022-10-01T06:43:06.188Z,76.29
2022-10-01T06:44:08.341Z,76.42
2022-10-01T06:45:10.670Z,76.26
2022-10-01T06:46:12.932Z,76.48
2022-10-01T06:47:15.147Z,76.54
2022-10-01T06:48:19.635Z,76.45
2022-10-01T06:49:22.788Z,76.25
2022-10-01T06:50:26.042Z,76.31
2022-10-01T06:51:51.064Z,76.24
2022-10-01T06:52:53.362Z,75.89
2022-10-01T06:53:57.397Z,75.90
2022-10-01T06:55:01.379Z,75.66
2022-10-01T06:56:07.481Z,75.77
2022-10-01T06:57:12.562Z,75.66
2022-10-01T06:58:19.625Z,75.60
2022-10-01T06:59:21.782Z,75.07
2022-10-01T07:00:24.926Z,75.16
2022-10-01T07:01:27.145Z,74.82
2022-10-01T07:02:30.200Z,74.39
2022-10-01T07:03:32.467Z,74.29
2022-10-01T07:04:34.678Z,74.38
2022-10-01T07:05:40.993Z,74.23
2022-10-01T07:06:43.222Z,74.10
2022-10-01T07:07:45.634Z,73.76
2022-10-01T07:08:50.998Z,73.73
2022-10-01T07:09:53.277Z,73.85
2022-10-01T07:11:02.724Z,73.96
2022-10-01T07:12:05.209Z,73.69
2022-10-01T07:13:09.644Z,73.64
2022-10-01T07:14:11.788Z,73.41
2022-10-01T07:15:14.442Z,72.99
2022-10-01T07:16:16.654Z,72.59
2022-10-01T07:17:18.861Z,72.75
2022-10-01T07:18:21.173Z,72.70
2022-10-01T07:19:23.443Z,72.54
2022-10-01T07:20:25.616Z,72.30
2022-10-01T07:21:27.789Z,72.47
2022-10-01T07:22:29.990Z,72.22
2022-10-01T07:23:34.213Z,71.74
2022-10-01T07:24:36.394Z,71.69
2022-10-01T07:25:40.640Z,71.76
2022-10-01T07:26:42.794Z,71.69
2022-10-01T07:27:45.136Z,71.37
2022-10-01T07:28:47.343Z,71.08
2022-10-01T07:29:49.498Z,70.91
2022-10-01T07:31:06.896Z,71.06
2022-10-01T07:32:10.422Z,70.81
2022-10-01T07:33:13.276Z,70.71
2022-10-01T07:34:15.908Z,70.66
2022-10-01T07:35:20.348Z,70.64
2022-10-01T07:36:22.803Z,70.87
2022-10-01T07:37:25.183Z,70.81
2022-10-01T07:38:27.295Z,71.07
2022-10-01T07:39:30.699Z,71.14
2022-10-01T07:40:33.067Z,71.15
2022-10-01T07:41:35.511Z,71.17
2022-10-01T07:42:38.503Z,70.92
2022-10-01T07:43:42.299Z,70.88
2022-10-01T07:44:44.445Z,70.93
2022-10-01T07:45:47.249Z,70.68
2022-10-01T07:46:49.643Z,70.45
2022-10-01T07:47:59.971Z,70.43
2022-10-01T07:49:02.090Z,70.07
2022-10-01T07:50:04.765Z,70.16
2022-10-01T07:51:07.726Z,70.25
2022-10-01T07:52:13.248Z,70.04
2022-10-01T07:53:15.836Z,70.23
2022-10-01T07:54:18.968Z,70.42
2022-10-01T07:55:21.361Z,70.12
2022-10-01T07:56:24.634Z,70.07
2022-10-01T07:57:26.796Z,69.86
2022-10-01T07:58:28.961Z,69.81
2022-10-01T07:59:31.305Z,69.57
2022-10-01T08:00:34.554Z,69.88
2022-10-01T08:01:38.494Z,69.11
2022-10-01T08:02:40.905Z,68.75
2022-10-01T08:03:43.240Z,68.64
2022-10-01T08:05:05.648Z,68.28
2022-10-01T08:06:11.044Z,67.92
2022-10-01T08:07:15.453Z,68.02
2022-10-01T08:08:17.624Z,67.91
2022-10-01T08:09:20.709Z,68.10
2022-10-01T08:10:23.310Z,67.84
2022-10-01T08:11:25.488Z,67.92
2022-10-01T08:12:28.882Z,68.12
2022-10-01T08:13:31.025Z,68.41
2022-10-01T08:14:33.553Z,68.38
2022-10-01T08:15:35.825Z,68.56
2022-10-01T08:16:40.169Z,68.51
2022-10-01T08:17:43.572Z,68.33
2022-10-01T08:18:45.698Z,67.89
2022-10-01T08:19:47.839Z,67.75
2022-10-01T08:20:50.142Z,67.78
2022-10-01T08:21:52.851Z,67.39
2022-10-01T08:23:00.850Z,67.33
2022-10-01T08:24:03.798Z,67.20
2022-10-01T08:25:06.624Z,67.22
2022-10-01T08:26:08.830Z,67.27
2022-10-01T08:27:11.465Z,66.90
2022-10-01T08:28:14.694Z,66.79
2022-10-01T08:29:17.217Z,66.80
2022-10-01T08:30:19.442Z,66.69
2022-10-01T08:31:21.980Z,66.69
2022-10-01T08:32:26.329Z,66.46
2022-10-01T08:33:28.484Z,66.43
2022-10-01T08:34:31.370Z,66.58
2022-10-01T08:35:33.912Z,66.31
2022-10-01T08:36:37.786Z,66.31
2022-10-01T08:37:40.175Z,66.68
2022-10-01T08:38:45.573Z,66.88
2022-10-01T08:39:47.868Z,66.29
2022-10-01T08:40:51.422Z,66.61
2022-10-01T08:42:12.709Z,66.60
2022-10-01T08:43:40.415Z,67.21
2022-10-01T08:44:45.518Z,67.46
2022-10-01T08:45:51.719Z,67.53
2022-10-01T08:47:00.675Z,67.50
2022-10-01T08:48:30.996Z,67.36
2022-10-01T08:49:46.295Z,67.36
2022-10-01T08:50:57.872Z,67.50
2022-10-01T08:52:23.315Z,67.22
2022-10-01T08:53:41.213Z,67.59
2022-10-01T08:54:57.839Z,67.26
2022-10-01T08:56:02.362Z,67.21
2022-10-01T08:57:14.168Z,67.01
2022-10-01T08:58:26.272Z,67.06
2022-10-01T08:59:53.742Z,66.60
2022-10-01T09:00:55.941Z,66.44
2022-10-01T09:01:59.256Z,66.29
2022-10-01T09:03:06.380Z,65.86
2022-10-01T09:04:08.795Z,65.68
2022-10-01T09:05:16.428Z,65.78
2022-10-01T09:06:21.452Z,65.85
2022-10-01T09:07:50.609Z,65.06
2022-10-01T09:09:30.551Z,65.10
2022-10-01T09:10:47.520Z,64.86
2022-10-01T09:12:14.658Z,64.93
2022-10-01T09:13:31.859Z,64.94
2022-10-01T09:15:03.694Z,64.96
2022-10-01T09:16:25.436Z,64.88
2022-10-01T09:17:43.920Z,64.47
2022-10-01T09:19:06.605Z,64.32
2022-10-01T09:20:21.106Z,64.24
2022-10-01T09:21:35.452Z,64.29
2022-10-01T09:22:49.978Z,64.69
2022-10-01T09:24:04.155Z,64.20
2022-10-01T09:25:09.152Z,64.17
2022-10-01T09:26:13.138Z,63.90
2022-10-01T09:27:17.552Z,63.72
2022-10-01T09:28:27.666Z,63.19
2022-10-01T09:29:44.339Z,63.55
2022-10-01T09:30:56.813Z,63.22
2022-10-01T09:32:01.947Z,62.75
2022-10-01T09:33:13.948Z,62.58
2022-10-01T09:34:34.084Z,62.34
2022-10-01T09:35:56.634Z,61.52
2022-10-01T09:37:21.935Z,61.90
2022-10-01T09:38:46.148Z,61.89
2022-10-01T09:40:12.802Z,61.67
2022-10-01T09:41:14.988Z,61.21
2022-10-01T09:42:18.404Z,61.08
2022-10-01T09:43:31.797Z,61.25
2022-10-01T09:44:34.501Z,61.47
2022-10-01T09:45:38.542Z,61.35
2022-10-01T09:46:41.237Z,61.04
2022-10-01T09:47:48.681Z,60.77
2022-10-01T09:48:56.686Z,61.02
2022-10-01T09:50:03.344Z,61.01
2022-10-01T09:51:12.973Z,60.67
2022-10-01T09:52:28.422Z,59.92
2022-10-01T09:54:09.819Z,59.76
2022-10-01T09:55:18.286Z,59.22
2022-10-01T09:57:01.481Z,58.69
2022-10-01T09:58:28.506Z,58.25
2022-10-01T09:59:38.398Z,57.83
2022-10-01T10:00:41.974Z,57.12
2022-10-01T10:01:50.016Z,57.32
2022-10-01T10:02:54.434Z,57.42
2022-10-01T10:03:57.890Z,57.65
2022-10-01T10:05:10.178Z,57.37
2022-10-01T10:06:12.896Z,57.39
2022-10-01T10:07:19.046Z,57.36
2022-10-01T10:08:21.201Z,57.51
2022-10-01T10:09:30.101Z,57.15
2022-10-01T10:10:35.698Z,57.16
2022-10-01T10:11:42.789Z,57.12
2022-10-01T10:12:45.721Z,56.86
2022-10-01T10:13:54.393Z,56.83
2022-10-01T10:14:58.923Z,56.17
2022-10-01T10:16:10.617Z,56.10
2022-10-01T10:17:16.789Z,56.17
2022-10-01T10:18:29.583Z,55.52
2022-10-01T10:19:33.980Z,55.58
2022-10-01T10:20:43.596Z,55.56
2022-10-01T10:22:00.630Z,55.47
2022-10-01T10:23:15.907Z,55.01
2022-10-01T10:24:33.008Z,55.26
2022-10-01T10:25:35.236Z,54.90
2022-10-01T10:26:41.200Z,54.73
2022-10-01T10:27:56.117Z,55.23
2022-10-01T10:29:01.788Z,54.40
2022-10-01T10:30:17.826Z,54.56
2022-10-01T10:31:22.565Z,54.14
2022-10-01T10:32:27.576Z,54.68
2022-10-01T10:33:30.210Z,54.93
2022-10-01T10:34:42.729Z,55.36
2022-10-01T10:35:47.540Z,55.83
2022-10-01T10:36:59.626Z,56.25
2022-10-01T10:38:02.516Z,56.79
2022-10-01T10:39:10.276Z,57.77
2022-10-01T10:40:29.289Z,57.57
2022-10-01T10:41:34.244Z,57.64
2022-10-01T10:42:48.088Z,58.13
2022-10-01T10:43:51.389Z,58.39
2022-10-01T10:44:57.451Z,59.00
2022-10-01T10:46:00.659Z,60.06
2022-10-01T10:47:06.837Z,59.24
2022-10-01T10:48:17.283Z,59.12
2022-10-01T10:49:36.167Z,59.43
2022-10-01T10:50:40.503Z,59.38
2022-10-01T10:51:54.076Z,59.90
2022-10-01T10:52:57.173Z,59.05
2022-10-01T10:54:02.073Z,60.17
2022-10-01T10:55:23.383Z,60.40
2022-10-01T10:56:26.296Z,60.62
2022-10-01T10:57:34.218Z,59.81
2022-10-01T10:58:42.244Z,60.88
2022-10-01T11:00:08.246Z,61.51
2022-10-01T11:01:16.468Z,62.15
2022-10-01T11:02:22.781Z,62.25
2022-10-01T11:03:29.056Z,62.66
2022-10-01T11:04:31.181Z,62.89
2022-10-01T11:05:41.567Z,62.86
2022-10-01T11:06:43.920Z,62.98
2022-10-01T11:07:48.695Z,62.98
2022-10-01T11:09:00.569Z,63.25
2022-10-01T11:10:47.351Z,63.57
2022-10-01T11:12:12.808Z,63.75
2022-10-01T11:13:45.328Z,63.74
2022-10-01T11:14:53.620Z,64.12
2022-10-01T11:16:21.541Z,64.54
2022-10-01T11:17:31.007Z,65.06
2022-10-01T11:18:39.340Z,65.33
2022-10-01T11:20:20.635Z,66.16
2022-10-01T11:21:35.568Z,65.99
2022-10-01T11:22:56.147Z,66.11
2022-10-01T11:24:24.739Z,65.66
2022-10-01T11:25:55.493Z,66.00
2022-10-01T11:27:11.254Z,66.90
2022-10-01T11:28:37.345Z,67.14
2022-10-01T11:30:05.529Z,67.09
2022-10-01T11:31:22.983Z,67.83
2022-10-01T11:32:51.899Z,67.77
2022-10-01T11:34:13.753Z,68.16
2022-10-01T11:35:28.882Z,67.15
2022-10-01T11:36:31.187Z,67.39
2022-10-01T11:37:36.225Z,67.36
2022-10-01T11:38:43.231Z,67.66
2022-10-01T11:39:51.873Z,68.33
2022-10-01T11:41:15.196Z,68.21
2022-10-01T11:42:24.562Z,69.07
2022-10-01T11:43:46.808Z,69.33
2022-10-01T11:45:01.551Z,69.57
2022-10-01T11:46:23.473Z,68.91
2022-10-01T11:47:39.248Z,69.73
2022-10-01T11:48:47.698Z,69.49
2022-10-01T11:50:04.458Z,69.79
2022-10-01T11:51:22.608Z,70.58
2022-10-01T11:52:37.907Z,70.78
2022-10-01T11:53:46.998Z,70.94
2022-10-01T11:55:38.911Z,71.22
2022-10-01T11:57:04.629Z,71.78
2022-10-01T11:58:47.023Z,71.89
2022-10-01T12:00:09.815Z,72.39
2022-10-01T12:01:25.157Z,72.98
2022-10-01T12:02:35.061Z,73.03
2022-10-01T12:03:53.489Z,73.43
2022-10-01T12:05:01.451Z,72.90
2022-10-01T12:06:09.507Z,73.84
2022-10-01T12:07:20.381Z,73.58
2022-10-01T12:08:31.827Z,73.86
2022-10-01T12:10:00.367Z,74.08
2022-10-01T12:11:13.891Z,74.52
2022-10-01T12:12:24.070Z,74.51
2022-10-01T12:13:37.794Z,74.92
2022-10-01T12:15:06.726Z,74.86
2022-10-01T12:16:38.302Z,75.12
2022-10-01T12:17:40.759Z,74.27
2022-10-01T12:18:48.839Z,74.91
2022-10-01T12:19:54.103Z,75.26
2022-10-01T12:21:00.035Z,74.74
2022-10-01T12:22:15.333Z,74.32
2022-10-01T12:23:25.149Z,74.49
2022-10-01T12:24:40.722Z,74.33
2022-10-01T12:26:01.816Z,74.65
2022-10-01T12:27:22.880Z,74.87
2022-10-01T12:28:39.535Z,74.65
2022-10-01T12:30:12.695Z,74.74
2022-10-01T12:31:39.562Z,74.57
2022-10-01T12:32:58.070Z,74.11
2022-10-01T12:34:06.910Z,74.61
2022-10-01T12:35:26.373Z,74.96
2022-10-01T12:36:39.658Z,74.53
2022-10-01T12:38:08.621Z,75.13
2022-10-01T12:39:13.922Z,75.44
2022-10-01T12:40:45.866Z,75.94
2022-10-01T12:42:30.137Z,76.33
2022-10-01T12:43:50.729Z,76.47
2022-10-01T12:45:06.051Z,76.79
2022-10-01T12:46:25.772Z,77.02
2022-10-01T12:47:28.518Z,76.63
2022-10-01T12:48:59.628Z,76.83
2022-10-01T12:50:01.846Z,77.23
2022-10-01T12:51:32.863Z,77.60
2022-10-01T12:52:46.843Z,77.64
2022-10-01T12:54:01.194Z,77.82
2022-10-01T12:55:22.183Z,77.68
2022-10-01T12:56:30.214Z,77.63
2022-10-01T12:57:39.345Z,76.81
2022-10-01T12:58:47.056Z,76.70
2022-10-01T13:00:10.656Z,77.30
2022-10-01T13:01:44.337Z,77.42
2022-10-01T13:03:08.288Z,76.97
2022-10-01T13:04:13.355Z,76.97
2022-10-01T13:05:44.360Z,76.86
2022-10-01T13:06:54.079Z,76.01
2022-10-01T13:08:17.571Z,76.30
2022-10-01T13:09:22.459Z,76.38
2022-10-01T13:10:33.237Z,76.45
2022-10-01T13:11:55.704Z,76.16
2022-10-01T13:13:07.802Z,75.56
2022-10-01T13:14:18.193Z,75.72
2022-10-01T13:15:49.596Z,75.47
2022-10-01T13:17:13.819Z,75.10
2022-10-01T13:18:33.391Z,75.25
2022-10-01T13:19:49.822Z,75.28
2022-10-01T13:21:05.675Z,75.77
2022-10-01T13:22:38.266Z,75.28
2022-10-01T13:24:01.584Z,75.93
2022-10-01T13:25:19.921Z,75.49
2022-10-01T13:26:43.264Z,75.61
2022-10-01T13:27:56.340Z,75.65
2022-10-01T13:29:11.469Z,75.62
2022-10-01T13:30:18.570Z,75.71
2022-10-01T13:31:35.189Z,75.78
2022-10-01T13:32:55.349Z,75.70
2022-10-01T13:33:59.719Z,75.73
2022-10-01T13:35:32.884Z,75.81
2022-10-01T13:36:38.120Z,75.69
2022-10-01T13:37:41.140Z,75.71
2022-10-01T13:38:47.951Z,75.58
2022-10-01T13:39:50.467Z,75.65
2022-10-01T13:41:04.691Z,76.00
2022-10-01T13:42:16.094Z,76.03
2022-10-01T13:43:21.369Z,76.01
2022-10-01T13:44:33.177Z,76.19
2022-10-01T13:45:38.462Z,75.43
2022-10-01T13:47:07.048Z,75.42
2022-10-01T13:48:23.590Z,75.18
2022-10-01T13:49:31.449Z,75.54
2022-10-01T13:50:34.566Z,75.07
2022-10-01T13:51:38.152Z,75.12
2022-10-01T13:52:41.068Z,75.34
2022-10-01T13:53:43.225Z,75.07
2022-10-01T13:54:50.448Z,75.10
2022-10-01T13:55:54.336Z,74.98
2022-10-01T13:57:11.288Z,74.56
2022-10-01T13:58:40.816Z,74.24
2022-10-01T13:59:43.824Z,74.30
2022-10-01T14:00:55.936Z,74.64
2022-10-01T14:01:58.431Z,75.11
2022-10-01T14:03:24.013Z,74.57
2022-10-01T14:04:48.143Z,74.13
2022-10-01T14:05:57.063Z,74.58
2022-10-01T14:07:04.535Z,74.89
2022-10-01T14:08:31.232Z,74.89
2022-10-01T14:09:45.763Z,74.19
2022-10-01T14:11:20.361Z,74.42
2022-10-01T14:12:52.927Z,74.90
2022-10-01T14:14:16.490Z,74.41
2022-10-01T14:15:38.619Z,74.11
2022-10-01T14:16:46.180Z,74.37
2022-10-01T14:17:55.880Z,74.83
2022-10-01T14:18:58.291Z,74.79
2022-10-01T14:20:01.400Z,74.94
2022-10-01T14:21:29.435Z,74.96
2022-10-01T14:22:53.406Z,75.04
2022-10-01T14:24:05.699Z,75.03
2022-10-01T14:25:29.470Z,75.27
2022-10-01T14:26:34.952Z,74.90
2022-10-01T14:28:06.860Z,75.09
2022-10-01T14:29:38.663Z,74.65
2022-10-01T14:31:03.708Z,74.75
2022-10-01T14:32:06.248Z,74.40
2022-10-01T14:33:26.377Z,74.78
2022-10-01T14:34:47.087Z,74.45
2022-10-01T14:36:32.342Z,74.55
2022-10-01T14:37:39.426Z,74.70
2022-10-01T14:38:41.661Z,74.50
2022-10-01T14:39:43.878Z,74.51
2022-10-01T14:40:48.935Z,74.36
2022-10-01T14:41:53.520Z,74.53
2022-10-01T14:43:18.766Z,74.58